SCVM 261700Z 32008KT 9999 SCT060 BKN090 17/09 Q1018